Time;durP1;ratioP1;P1;durP2;ratioP2;P2;SDS_P1;SDS_P2;PMS_P1;PMS_P2;Temp;Humidity;BMP_temperature;BMP_pressure;BME280_temperature;BME280_humidity;BME280_pressure;Samples;Min_cycle;Max_cycle;Signal;HPM_P1;HPM_P2
2022/01/23 00:02:19;;;;;;;;;55.00;42.00;;;;;7.32;65.94;103172.03;5060295;28;48064;-76
2022/01/23 00:04:44;;;;;;;;;48.00;38.50;;;;;7.36;65.95;103162.19;5060610;28;46303;-75
2022/01/23 00:07:13;;;;;;;;;50.00;36.75;;;;;7.41;65.60;103160.22;5079161;28;45463;-75
2022/01/23 00:09:40;;;;;;;;;52.25;40.75;;;;;7.55;65.10;103176.38;5078983;28;45477;-75
2022/01/23 00:12:14;;;;;;;;;47.00;37.25;;;;;7.11;64.77;103092.69;5076818;28;46604;-73
2022/01/23 00:17:25;;;;;;;;;44.50;38.25;;;;;7.20;64.42;103085.22;5078913;28;45463;-75
2022/01/23 00:19:56;;;;;;;;;49.50;40.75;;;;;7.66;64.26;103169.78;5074320;27;45597;-74
2022/01/23 00:22:33;;;;;;;;;48.00;36.75;;;;;7.51;64.44;103164.19;5039968;28;46126;-74
2022/01/23 00:30:49;;;;;;;;;46.00;37.67;;;;;7.65;64.21;103152.16;5036583;28;45363;-72
2022/01/23 00:33:15;;;;;;;;;49.25;41.00;;;;;7.81;63.72;103158.53;5031734;28;48387;-74
2022/01/23 00:35:43;;;;;;;;;55.25;41.75;;;;;7.68;63.62;103157.31;5058767;28;45362;-72
2022/01/23 00:38:22;;;;;;;;;56.00;44.00;;;;;7.63;64.20;103155.75;5058808;28;45331;-73
2022/01/23 00:40:48;;;;;;;;;51.50;40.25;;;;;7.57;63.78;103126.84;5040139;28;45411;-72
2022/01/23 00:43:27;;;;;;;;;55.75;45.75;;;;;7.52;64.02;103123.56;5058138;28;45396;-74
2022/01/23 00:46:07;;;;;;;;;50.50;40.75;;;;;7.58;65.05;103146.25;5057786;28;45339;-75
2022/01/23 00:48:36;;;;;;;;;52.50;41.75;;;;;7.33;65.09;103130.56;5072816;28;45461;-73
2022/01/23 00:51:04;;;;;;;;;50.00;38.50;;;;;7.29;64.86;103144.84;5057867;28;45237;-73
2022/01/23 00:53:29;;;;;;;;;53.75;40.25;;;;;7.19;65.20;103127.63;5058365;28;46058;-72
2022/01/23 00:55:55;;;;;;;;;33.75;29.25;;;;;7.32;65.62;103140.28;5040966;28;45328;-74
2022/01/23 00:58:21;;;;;;;;;69.50;53.75;;;;;7.55;65.03;103141.09;5057977;28;45310;-76
2022/01/23 01:00:46;;;;;;;;;48.25;39.75;;;;;7.29;64.68;103110.44;5060164;28;45388;-74
2022/01/23 01:03:12;;;;;;;;;44.50;37.25;;;;;7.38;65.07;103139.16;5077790;28;46332;-72
2022/01/23 01:05:37;;;;;;;;;56.25;43.75;;;;;7.27;65.36;103125.53;5059321;28;45636;-71
2022/01/23 01:08:05;;;;;;;;;46.50;37.75;;;;;7.38;64.92;103139.16;5076369;28;45417;-73
2022/01/23 01:10:41;;;;;;;;;56.75;43.50;;;;;7.07;65.33;103091.97;5076611;28;45351;-73
2022/01/23 01:13:10;;;;;;;;;46.50;37.75;;;;;7.23;65.45;103140.69;5077487;28;45705;-73
2022/01/23 01:32:06;;;;;;;;;52.25;39.75;;;;;7.37;64.73;103121.56;5079014;28;45498;-72
2022/01/23 01:34:46;;;;;;;;;50.75;41.25;;;;;7.41;64.66;103119.63;5077099;28;46056;-74
2022/01/23 01:37:12;;;;;;;;;46.50;37.25;;;;;7.37;64.74;103126.84;5077597;28;45206;-73
2022/01/23 01:39:40;;;;;;;;;49.00;40.00;;;;;7.25;64.81;103117.66;5076170;28;45457;-74
2022/01/23 01:42:06;;;;;;;;;50.00;39.00;;;;;7.34;65.48;103132.28;5076283;28;45490;-74
2022/01/23 01:44:32;;;;;;;;;44.75;37.25;;;;;7.41;65.25;103128.47;5075549;28;47129;-74
2022/01/23 01:46:57;;;;;;;;;51.50;37.75;;;;;7.29;65.05;103121.03;5058965;28;45836;-73
2022/01/23 01:49:28;;;;;;;;;36.25;29.00;;;;;7.23;65.11;103108.94;5058843;28;45339;-72
2022/01/23 01:51:56;;;;;;;;;42.75;32.50;;;;;7.00;65.15;103085.19;5059054;28;45556;-72
2022/01/23 01:54:24;;;;;;;;;49.00;37.00;;;;;7.17;65.75;103106.53;5058775;28;47338;-72
2022/01/23 01:56:52;;;;;;;;;49.25;35.00;;;;;7.10;65.27;103090.97;5077173;28;45470;-72
2022/01/23 02:09:47;;;;;;;;;52.00;39.75;;;;;7.20;64.89;103126.69;5080998;28;45366;-72
2022/01/23 02:15:10;;;;;;;;;48.25;40.00;;;;;7.20;64.97;103124.06;5080851;28;45339;-71
2022/01/23 02:17:57;;;;;;;;;49.33;40.67;;;;;7.15;64.68;103104.88;5080432;28;45467;-72
2022/01/23 02:55:58;;;;;;;;;40.00;34.00;;;;;6.88;65.49;103099.81;5067448;28;45253;-72
2022/01/23 02:58:31;;;;;;;;;28.00;26.67;;;;;6.89;64.63;103083.00;5079939;28;45526;-73
2022/01/23 03:01:15;;;;;;;;;39.00;35.00;;;;;6.93;64.68;103074.03;5078433;28;45942;-73
2022/01/23 03:03:44;;;;;;;;;35.67;29.67;;;;;6.90;64.71;103071.50;5079881;28;45352;-73
2022/01/23 03:09:21;;;;;;;;;40.67;34.00;;;;;6.85;64.64;103060.28;5079597;28;45825;-72
2022/01/23 03:30:23;;;;;;;;;40.33;33.67;;;;;6.50;66.20;103045.84;5079470;28;45680;-73
2022/01/23 03:32:50;;;;;;;;;47.33;40.00;;;;;6.71;66.39;103067.91;5077838;28;45328;-75
2022/01/23 03:35:19;;;;;;;;;48.33;36.67;;;;;6.85;65.85;103070.00;5061340;28;45311;-72
2022/01/23 03:37:45;;;;;;;;;36.33;32.67;;;;;6.78;65.31;103048.22;5079338;28;45493;-72
2022/01/23 03:40:11;;;;;;;;;39.33;34.00;;;;;7.03;64.91;103063.09;5077630;28;49061;-73
2022/01/23 03:42:39;;;;;;;;;36.33;33.00;;;;;6.87;64.84;103061.06;5079065;28;45949;-72
2022/01/23 03:45:31;;;;;;;;;40.50;33.00;;;;;6.77;65.46;103057.06;5078741;28;45314;-72
2022/01/23 03:49:30;;;;;;;;;45.00;32.00;;;;;6.63;65.15;103035.66;5079305;28;45591;-73
2022/01/23 03:50:47;;;;;;;;;41.67;33.67;;;;;6.68;65.90;103041.59;5080473;28;45213;-72
2022/01/23 03:53:13;;;;;;;;;44.67;36.67;;;;;6.05;65.02;102940.25;5061919;28;45928;-71
2022/01/23 03:55:39;;;;;;;;;47.67;37.00;;;;;6.77;65.78;103056.22;5080408;28;45197;-72
2022/01/23 03:58:04;;;;;;;;;39.33;34.00;;;;;6.67;64.82;103039.88;5079550;28;45482;-72
2022/01/23 04:00:31;;;;;;;;;47.75;38.00;;;;;6.65;65.99;103061.09;5077265;28;47782;-72
2022/01/23 04:02:56;;;;;;;;;41.67;34.67;;;;;6.51;66.22;103066.06;5077417;28;46741;-72
2022/01/23 04:05:22;;;;;;;;;35.33;33.67;;;;;6.49;66.09;103065.25;5079467;28;45533;-73
2022/01/23 04:07:47;;;;;;;;;43.33;36.33;;;;;6.51;65.65;103059.91;5079369;28;45529;-71
2022/01/23 04:10:18;;;;;;;;;38.67;34.00;;;;;6.22;66.81;102995.88;5078845;28;45636;-73
2022/01/23 04:18:39;;;;;;;;;44.33;33.67;;;;;6.55;65.89;103016.56;5078903;28;45545;-72
2022/01/23 04:45:21;;;;;;;;;36.33;32.33;;;;;6.60;65.26;103047.16;5071262;28;45292;-73
2022/01/23 05:01:25;;;;;;;;;43.33;34.33;;;;;6.55;65.73;103041.22;5077637;28;45241;-71
2022/01/23 05:07:04;;;;;;;;;45.00;37.00;;;;;6.62;65.16;103061.22;5034288;28;45541;-72
2022/01/23 05:09:31;;;;;;;;;50.00;38.33;;;;;6.13;65.92;102980.38;5042378;28;45629;-73
2022/01/23 05:12:08;;;;;;;;;42.00;34.00;;;;;6.64;65.21;103061.16;5074635;28;45402;-72
2022/01/23 05:14:40;;;;;;;;;40.33;36.00;;;;;6.03;65.76;102952.66;5076913;27;46630;-73
2022/01/23 05:17:08;;;;;;;;;35.33;29.67;;;;;6.71;65.84;103042.31;5077370;28;45474;-73
2022/01/23 05:19:34;;;;;;;;;37.67;35.00;;;;;6.85;65.12;103051.47;5077679;28;45390;-73
2022/01/23 05:24:40;;;;;;;;;41.33;34.00;;;;;6.65;65.66;103047.00;5076917;28;45626;-72
2022/01/23 05:27:10;;;;;;;;;41.33;30.33;;;;;6.70;65.14;103060.91;5077167;28;45516;-73
2022/01/23 05:29:36;;;;;;;;;40.33;30.67;;;;;6.38;65.52;103028.69;5077037;28;45434;-72
2022/01/23 05:32:03;;;;;;;;;32.00;27.67;;;;;6.02;65.47;102969.41;5077334;28;45522;-72
2022/01/23 05:34:29;;;;;;;;;47.00;36.33;;;;;6.43;65.73;103047.03;5072868;28;47653;-73
2022/01/23 05:36:55;;;;;;;;;32.67;32.67;;;;;6.55;65.49;103048.28;5067413;28;46078;-72
2022/01/23 05:39:23;;;;;;;;;36.00;29.67;;;;;6.05;65.30;102966.66;5076291;28;45590;-72
2022/01/23 05:41:54;;;;;;;;;39.33;36.00;;;;;6.69;65.45;103060.03;5067735;28;45644;-73
2022/01/23 05:44:20;;;;;;;;;42.00;32.33;;;;;6.77;64.96;103062.34;5072317;28;46623;-73
2022/01/23 05:46:46;;;;;;;;;43.00;35.67;;;;;6.82;64.77;103067.47;5057609;28;46125;-73
2022/01/23 05:49:11;;;;;;;;;31.00;25.00;;;;;6.71;65.32;103065.25;5076603;28;45248;-73
2022/01/23 05:51:36;;;;;;;;;29.67;21.67;;;;;6.63;65.33;103056.78;5068675;28;45488;-74
2022/01/23 05:54:02;;;;;;;;;33.00;28.00;;;;;6.84;65.05;103066.50;5058994;28;48585;-73
2022/01/23 05:56:28;;;;;;;;;33.67;32.33;;;;;6.72;65.58;103043.19;5076852;28;45395;-71
2022/01/23 05:58:54;;;;;;;;;34.00;34.00;;;;;6.76;65.07;103042.13;5074933;28;45466;-72
2022/01/23 06:01:19;;;;;;;;;42.00;34.00;;;;;6.84;65.23;103074.41;5055762;28;45242;-72
2022/01/23 06:03:45;;;;;;;;;33.00;30.33;;;;;6.85;64.95;103060.28;5072583;28;45555;-71
2022/01/23 06:06:10;;;;;;;;;35.67;25.67;;;;;6.72;64.75;103051.97;5076683;28;45303;-73
2022/01/23 06:08:35;;;;;;;;;35.33;30.00;;;;;6.66;65.62;103051.38;5075424;28;45346;-72
2022/01/23 06:11:01;;;;;;;;;38.00;31.33;;;;;6.62;65.36;103057.72;5074766;28;45643;-73
2022/01/23 06:13:27;;;;;;;;;32.67;27.33;;;;;6.66;64.83;103076.03;5066581;28;47679;-72
2022/01/23 06:15:54;;;;;;;;;36.00;29.00;;;;;6.65;65.01;103081.38;5058604;28;46652;-72
2022/01/23 06:18:19;;;;;;;;;24.67;23.33;;;;;6.49;65.07;103085.53;5057974;28;45863;-74
2022/01/23 06:20:45;;;;;;;;;31.67;26.67;;;;;6.32;65.16;103057.13;5063632;28;45482;-73
2022/01/23 06:23:12;;;;;;;;;32.00;25.33;;;;;6.45;66.11;103078.66;5064103;28;46700;-73
2022/01/23 06:25:42;;;;;;;;;32.33;23.67;;;;;6.25;66.24;103069.72;5074002;28;46178;-72
2022/01/23 06:28:08;;;;;;;;;26.33;21.67;;;;;6.16;66.60;103054.22;5076924;28;45399;-73
2022/01/23 06:30:35;;;;;;;;;23.00;16.33;;;;;6.12;65.64;103042.06;5076704;28;45506;-71
2022/01/23 06:33:00;;;;;;;;;33.00;26.67;;;;;6.29;65.77;103071.31;5076941;28;46497;-72
2022/01/23 06:35:28;;;;;;;;;20.00;18.33;;;;;6.28;66.28;103056.41;5059287;28;45418;-70
2022/01/23 06:37:53;;;;;;;;;26.00;25.33;;;;;6.53;65.75;103079.22;5072767;28;45461;-70
2022/01/23 06:40:19;;;;;;;;;21.00;17.67;;;;;6.65;64.64;103076.09;5055779;28;45566;-71
2022/01/23 06:42:44;;;;;;;;;26.67;21.67;;;;;6.48;64.91;103044.19;5070871;28;47362;-74
2022/01/23 06:45:10;;;;;;;;;25.00;23.00;;;;;6.62;65.15;103068.28;5053901;28;45485;-72
2022/01/23 06:47:35;;;;;;;;;23.00;20.67;;;;;6.60;65.12;103055.09;5076864;28;45502;-73
2022/01/23 06:50:01;;;;;;;;;19.00;18.33;;;;;6.68;64.91;103065.38;5076733;28;45390;-73
2022/01/23 06:52:27;;;;;;;;;23.00;17.67;;;;;5.20;64.43;102817.72;5075311;28;47466;-73
2022/01/23 06:54:52;;;;;;;;;19.67;17.67;;;;;6.63;64.16;103062.94;5070409;28;45443;-74
2022/01/23 06:57:17;;;;;;;;;17.00;17.00;;;;;6.41;64.63;103075.28;5078415;28;45264;-73
2022/01/23 06:59:43;;;;;;;;;28.00;22.67;;;;;6.40;64.76;103084.97;5071825;28;45400;-72
2022/01/23 07:02:09;;;;;;;;;22.00;19.33;;;;;6.05;64.94;103035.31;5079922;28;45600;-74
2022/01/23 07:04:35;;;;;;;;;15.67;13.00;;;;;6.22;64.76;103096.25;5079877;28;45522;-72
2022/01/23 07:07:00;;;;;;;;;25.67;19.00;;;;;6.26;64.89;103100.50;5077485;28;45450;-72
2022/01/23 07:09:26;;;;;;;;;16.33;15.33;;;;;6.27;64.92;103078.44;5071399;28;45308;-73
2022/01/23 07:11:51;;;;;;;;;20.67;20.00;;;;;6.42;65.19;103100.78;5071022;28;45997;-72
2022/01/23 07:14:17;;;;;;;;;27.67;22.67;;;;;6.38;65.06;103084.16;5077800;28;45654;-73
2022/01/23 07:16:42;;;;;;;;;21.67;18.67;;;;;6.43;65.22;103073.44;5079649;28;45300;-72
2022/01/23 07:19:07;;;;;;;;;24.00;21.67;;;;;6.50;64.79;103081.97;5061357;28;45660;-71
2022/01/23 07:21:33;;;;;;;;;24.67;20.00;;;;;6.49;65.45;103065.25;5077987;28;48211;-72
2022/01/23 07:23:58;;;;;;;;;23.67;19.00;;;;;6.20;65.94;103055.81;5078915;28;45411;-72
2022/01/23 07:26:27;;;;;;;;;19.00;17.67;;;;;6.34;66.20;103079.94;5074509;28;45468;-73
2022/01/23 07:28:55;;;;;;;;;20.67;18.67;;;;;6.14;66.29;103076.31;5044791;28;45549;-74
2022/01/23 07:31:55;;;;;;;;;24.33;18.67;;;;;5.87;66.88;103065.00;5061322;28;46174;-73
2022/01/23 07:34:18;;;;;;;;;21.33;17.67;;;;;6.17;66.35;103089.41;5073282;28;45434;-72
2022/01/23 07:36:43;;;;;;;;;18.67;17.00;;;;;6.18;66.15;103070.00;5078137;28;45347;-72
2022/01/23 07:39:08;;;;;;;;;23.00;17.00;;;;;6.12;66.14;103062.31;5076252;28;45284;-73
2022/01/23 07:41:34;;;;;;;;;17.67;15.67;;;;;6.32;66.14;103087.06;5048038;28;47531;-74
2022/01/23 07:43:59;;;;;;;;;21.67;21.00;;;;;6.27;65.65;103073.16;5077864;28;45425;-74
2022/01/23 07:46:25;;;;;;;;;21.33;16.33;;;;;6.42;65.13;103092.84;5079253;28;45557;-72
2022/01/23 07:48:50;;;;;;;;;18.00;17.00;;;;;6.30;64.25;103067.75;5060849;28;45513;-73
2022/01/23 07:51:16;;;;;;;;;14.33;13.00;;;;;6.10;64.41;103034.19;5060562;28;46710;-73
2022/01/23 07:53:41;;;;;;;;;19.00;17.00;;;;;6.27;64.32;103062.59;5056685;28;45288;-74
2022/01/23 07:56:07;;;;;;;;;22.67;15.67;;;;;6.27;64.55;103046.75;5077888;28;45506;-72
2022/01/23 07:58:32;;;;;;;;;26.33;19.00;;;;;6.54;64.04;103096.78;5074486;28;45529;-74
2022/01/23 08:00:58;;;;;;;;;22.33;16.33;;;;;6.36;64.30;103064.88;5057545;28;48634;-74
2022/01/23 08:03:23;;;;;;;;;24.00;18.00;;;;;6.49;63.90;103081.13;5076468;28;45248;-73
2022/01/23 08:05:49;;;;;;;;;17.00;14.67;;;;;5.96;63.42;103010.09;5060614;28;45434;-73
2022/01/23 08:08:14;;;;;;;;;21.67;17.33;;;;;6.42;63.89;103078.78;5080864;28;45558;-74
2022/01/23 08:10:40;;;;;;;;;18.67;15.33;;;;;6.39;63.72;103074.44;5070459;28;46252;-72
2022/01/23 08:13:06;;;;;;;;;17.33;16.00;;;;;6.47;64.18;103112.03;5078460;28;45220;-72
2022/01/23 08:15:33;;;;;;;;;26.67;19.67;;;;;6.33;63.99;103093.19;5060978;28;45448;-72
2022/01/23 08:18:04;;;;;;;;;17.00;14.67;;;;;6.41;64.52;103120.19;5078846;28;45521;-73
2022/01/23 08:20:29;;;;;;;;;19.00;19.00;;;;;6.44;64.39;103106.00;5070414;28;46651;-73
2022/01/23 08:22:59;;;;;;;;;21.67;19.00;;;;;6.35;64.58;103116.00;5076911;28;46298;-73
2022/01/23 08:25:25;;;;;;;;;24.33;23.33;;;;;6.40;64.57;103116.66;5078133;28;45348;-73
2022/01/23 08:27:50;;;;;;;;;24.67;22.67;;;;;6.31;64.73;103111.75;5068477;28;45330;-72
2022/01/23 08:30:16;;;;;;;;;24.33;22.33;;;;;6.41;64.63;103128.13;5068380;28;47699;-74
2022/01/23 08:32:41;;;;;;;;;19.67;18.33;;;;;6.40;64.67;103092.03;5077730;28;45494;-72
2022/01/23 08:35:07;;;;;;;;;26.00;22.67;;;;;6.42;64.79;103102.56;5060795;28;45586;-74
2022/01/23 08:37:33;;;;;;;;;22.00;20.33;;;;;6.45;64.81;103105.09;5053549;28;45260;-73
2022/01/23 08:39:58;;;;;;;;;29.00;24.33;;;;;6.04;64.59;103034.44;5053088;28;47687;-72
2022/01/23 08:42:24;;;;;;;;;26.00;21.00;;;;;5.84;63.68;102988.56;5068934;28;45728;-74
2022/01/23 08:44:50;;;;;;;;;25.67;20.00;;;;;6.58;64.21;103120.38;5078347;28;45479;-75
2022/01/23 08:47:17;;;;;;;;;26.33;24.00;;;;;5.88;63.96;103012.13;5070331;28;45578;-74
2022/01/23 08:49:47;;;;;;;;;25.00;21.67;;;;;6.42;64.67;103124.56;5047822;28;47459;-72
2022/01/23 08:52:16;;;;;;;;;22.00;18.00;;;;;6.40;64.01;103111.38;5055513;28;46658;-72
2022/01/23 08:54:43;;;;;;;;;22.33;18.33;;;;;6.38;64.44;103113.22;5059231;28;45494;-73
2022/01/23 08:57:09;;;;;;;;;22.33;18.67;;;;;6.25;63.72;103090.00;5077971;28;45495;-74
2022/01/23 08:59:34;;;;;;;;;25.00;17.00;;;;;6.48;63.80;103123.47;5066997;28;48021;-73
2022/01/23 09:02:00;;;;;;;;;25.00;18.67;;;;;6.52;63.76;103123.28;5066032;28;45341;-73
2022/01/23 09:04:25;;;;;;;;;20.33;17.33;;;;;6.44;64.61;103106.00;5074917;28;45667;-73
2022/01/23 09:06:50;;;;;;;;;20.67;17.00;;;;;6.55;64.49;103122.28;5077677;28;45383;-71
2022/01/23 09:09:19;;;;;;;;;21.00;19.67;;;;;6.46;63.70;103109.44;5059186;28;46255;-75
2022/01/23 09:12:03;;;;;;;;;27.67;20.33;;;;;6.30;64.55;103117.97;5077319;28;45171;-72
2022/01/23 09:14:29;;;;;;;;;17.00;15.67;;;;;6.22;64.97;103125.31;5074821;28;45380;-73
2022/01/23 09:16:55;;;;;;;;;23.67;20.67;;;;;6.25;65.63;103132.28;5056092;28;45557;-74
2022/01/23 09:19:24;;;;;;;;;25.33;22.00;;;;;6.31;65.69;103132.03;5073652;28;45752;-74
2022/01/23 09:21:52;;;;;;;;;22.67;16.67;;;;;6.30;65.37;103111.81;5075913;28;45475;-74
2022/01/23 09:24:19;;;;;;;;;23.33;22.00;;;;;6.20;65.20;103127.13;5059118;28;45228;-72
2022/01/23 09:26:52;;;;;;;;;30.67;21.00;;;;;5.55;65.11;103018.66;5077218;28;45638;-73
2022/01/23 09:29:25;;;;;;;;;27.00;24.67;;;;;5.89;65.61;103061.38;5067233;28;47929;-75
2022/01/23 09:31:52;;;;;;;;;25.67;24.33;;;;;6.37;65.06;103132.66;5076762;28;45399;-73
2022/01/23 09:34:24;;;;;;;;;22.67;20.67;;;;;6.46;64.67;103139.38;5058812;28;45274;-74
2022/01/23 09:36:50;;;;;;;;;19.33;17.67;;;;;6.26;64.67;103124.28;5077164;28;45385;-74
2022/01/23 09:39:16;;;;;;;;;21.67;19.33;;;;;6.31;64.78;103151.38;5077034;28;45603;-73
2022/01/23 09:41:47;;;;;;;;;21.33;17.33;;;;;6.25;64.71;103143.69;5077087;28;45392;-73
2022/01/23 09:44:16;;;;;;;;;21.00;17.00;;;;;6.32;64.71;103139.03;5058554;28;45352;-75
2022/01/23 09:46:43;;;;;;;;;19.67;14.33;;;;;6.43;63.67;103152.72;5076508;28;45506;-73
2022/01/23 09:49:12;;;;;;;;;19.67;18.00;;;;;6.26;64.84;103140.13;5051635;28;47360;-75
2022/01/23 09:51:41;;;;;;;;;15.33;14.33;;;;;6.22;63.87;103122.69;5058757;28;46026;-72
2022/01/23 09:54:10;;;;;;;;;19.33;16.33;;;;;6.29;64.05;103147.06;5059334;28;45436;-73
2022/01/23 09:56:36;;;;;;;;;16.00;15.67;;;;;6.06;63.49;103095.13;5073704;28;45417;-74
2022/01/23 09:59:01;;;;;;;;;17.67;15.00;;;;;6.27;64.14;103120.72;5076171;28;46068;-75
2022/01/23 10:01:29;;;;;;;;;20.67;17.67;;;;;6.07;64.74;103091.56;5077360;28;45272;-75
2022/01/23 10:03:57;;;;;;;;;17.33;14.67;;;;;6.38;64.14;103129.06;5047356;28;45547;-75
2022/01/23 10:06:23;;;;;;;;;16.00;13.67;;;;;6.06;64.46;103122.38;5080381;27;46050;-73
2022/01/23 10:08:49;;;;;;;;;16.33;15.00;;;;;6.24;64.74;103141.13;5080762;27;47303;-74
2022/01/23 10:11:16;;;;;;;;;17.00;16.00;;;;;6.23;64.72;103129.69;5074641;27;45513;-75
2022/01/23 10:13:43;;;;;;;;;18.00;15.00;;;;;6.18;64.68;103126.31;5057281;28;45479;-73
2022/01/23 10:16:09;;;;;;;;;17.33;16.00;;;;;6.42;64.88;103134.28;5075221;28;45573;-75
2022/01/23 10:18:35;;;;;;;;;15.67;14.33;;;;;6.43;64.20;103141.28;5056773;28;47592;-74
2022/01/23 10:21:04;;;;;;;;;13.00;12.00;;;;;6.52;63.96;103136.50;5054827;28;45573;-74
2022/01/23 10:23:30;;;;;;;;;23.00;16.33;;;;;6.62;63.42;103142.28;5073603;28;45391;-74
2022/01/23 10:25:56;;;;;;;;;15.00;10.00;;;;;6.71;63.61;103141.91;5057894;28;45439;-75
2022/01/23 10:28:28;;;;;;;;;13.00;12.33;;;;;6.78;64.05;103138.09;5063647;28;47513;-80
2022/01/23 10:30:59;;;;;;;;;17.33;12.33;;;;;6.75;63.39;103143.50;5078814;28;45388;-74
2022/01/23 10:33:28;;;;;;;;;16.00;13.33;;;;;6.68;63.47;103128.81;5057145;28;45438;-76
2022/01/23 10:36:10;;;;;;;;;17.33;11.33;;;;;6.65;63.88;103137.75;5072460;28;45581;-73
2022/01/23 10:38:58;;;;;;;;;9.33;7.67;;;;;6.58;63.38;103140.66;5072687;27;46028;-75
2022/01/23 10:49:52;;;;;;;;;15.00;11.67;;;;;6.27;64.47;103135.72;5075063;28;46230;-76
2022/01/23 10:52:34;;;;;;;;;14.00;10.33;;;;;6.36;64.74;103138.00;5077653;28;45419;-74
2022/01/23 10:55:03;;;;;;;;;24.00;16.33;;;;;6.39;64.78;103129.94;5077789;28;45582;-81
2022/01/23 10:57:37;;;;;;;;;17.00;15.00;;;;;6.30;64.06;103122.38;5069862;28;45572;-74
2022/01/23 11:00:06;;;;;;;;;17.00;16.00;;;;;6.44;64.63;103137.72;5072254;28;48287;-74
2022/01/23 11:02:31;;;;;;;;;15.33;11.00;;;;;6.37;64.29;103100.94;5051816;28;45443;-74
2022/01/23 11:05:09;;;;;;;;;17.33;13.00;;;;;6.43;63.50;103110.44;5078156;28;45437;-74
2022/01/23 11:07:39;;;;;;;;;16.00;13.00;;;;;6.57;63.46;103117.81;5055055;28;45490;-74
2022/01/23 11:10:13;;;;;;;;;22.67;20.00;;;;;6.67;63.59;103119.19;5061454;28;47524;-74
2022/01/23 11:18:13;;;;;;;;;16.33;10.00;;;;;6.59;64.13;103108.88;5074683;28;45312;-75
2022/01/23 11:20:47;;;;;;;;;17.00;16.00;;;;;6.63;63.52;103101.72;5079985;28;45730;-72
2022/01/23 11:23:32;;;;;;;;;16.67;12.33;;;;;6.69;63.81;103104.13;5060696;28;46210;-74
2022/01/23 11:26:00;;;;;;;;;16.33;15.00;;;;;6.77;63.39;103098.50;5043492;28;45734;-73
2022/01/23 11:28:40;;;;;;;;;21.33;18.33;;;;;6.51;63.46;103054.63;5077761;28;45564;-75
2022/01/23 11:31:08;;;;;;;;;18.67;16.00;;;;;5.29;63.60;102861.38;5078662;28;46341;-74
2022/01/23 11:33:34;;;;;;;;;20.00;19.00;;;;;6.62;63.55;103071.78;5075804;28;46593;-73
2022/01/23 11:36:01;;;;;;;;;14.00;13.00;;;;;6.59;63.96;103082.47;5056638;28;45789;-75
2022/01/23 11:38:28;;;;;;;;;14.67;14.67;;;;;6.59;64.50;103071.03;5076990;28;45504;-73
2022/01/23 11:54:41;;;;;;;;;13.67;13.00;;;;;6.45;63.50;103065.44;5078328;28;45229;-74
2022/01/23 11:57:42;;;;;;;;;17.67;13.33;;;;;6.49;62.59;103072.31;5073558;28;45475;-76
2022/01/23 12:00:27;;;;;;;;;18.00;13.67;;;;;6.51;63.17;103070.47;5051893;28;45550;-74
2022/01/23 12:03:17;;;;;;;;;14.00;13.00;;;;;6.56;63.01;103064.09;5075575;28;47797;-75
2022/01/23 12:05:48;;;;;;;;;15.00;14.67;;;;;6.64;62.59;103059.38;5060517;28;45280;-75
2022/01/23 12:08:29;;;;;;;;;14.00;12.00;;;;;6.68;62.40;103046.88;5058150;28;45435;-74
2022/01/23 12:17:05;;;;;;;;;16.00;13.33;;;;;6.63;62.30;103027.72;5071495;28;45575;-73
2022/01/23 12:19:51;;;;;;;;;18.00;18.00;;;;;6.48;62.21;103030.97;5058837;28;45426;-73
2022/01/23 12:22:34;;;;;;;;;18.67;16.33;;;;;6.37;63.31;103016.38;5073027;28;45267;-75
2022/01/23 12:25:17;;;;;;;;;21.33;17.67;;;;;5.92;63.75;102960.13;5073488;28;45745;-74
2022/01/23 12:27:43;;;;;;;;;21.67;16.00;;;;;6.38;63.44;103026.03;5059775;28;45388;-75
2022/01/23 12:30:31;;;;;;;;;17.00;15.33;;;;;6.43;63.52;103027.66;5080720;28;45229;-73
2022/01/23 12:33:17;;;;;;;;;17.00;14.67;;;;;6.37;64.17;103023.47;5054446;28;45898;-77
2022/01/23 12:35:56;;;;;;;;;19.33;17.33;;;;;6.33;62.93;103009.53;5077195;28;46418;-74
2022/01/23 12:38:38;;;;;;;;;14.33;14.33;;;;;6.34;62.92;102987.47;5077680;28;45500;-75
2022/01/23 12:41:23;;;;;;;;;16.00;14.67;;;;;5.90;62.65;102890.69;5062554;28;45343;-74
2022/01/23 12:44:03;;;;;;;;;21.67;18.33;;;;;6.50;63.52;102985.06;5077263;28;45847;-72
2022/01/23 12:46:30;;;;;;;;;16.33;15.33;;;;;6.61;63.18;103000.50;5059048;28;48462;-75
2022/01/23 12:48:59;;;;;;;;;21.33;19.67;;;;;6.53;63.13;102986.72;5072666;27;45407;-73
2022/01/23 12:51:33;;;;;;;;;19.00;16.33;;;;;6.05;63.38;102903.28;5073049;27;45693;-73
2022/01/23 12:53:58;;;;;;;;;18.33;14.00;;;;;6.69;63.18;102996.59;5058800;28;45684;-73
2022/01/23 12:56:32;;;;;;;;;24.67;21.33;;;;;6.61;63.38;102990.78;5077058;28;46048;-73
2022/01/23 12:59:07;;;;;;;;;20.00;16.33;;;;;6.53;63.23;102981.44;5059182;28;45441;-73
2022/01/23 13:01:33;;;;;;;;;20.00;16.00;;;;;6.65;62.84;102989.72;5063858;28;45328;-77
2022/01/23 13:04:02;;;;;;;;;21.33;18.33;;;;;6.77;63.38;102982.19;5073174;28;45351;-74
2022/01/23 13:06:32;;;;;;;;;17.33;16.00;;;;;6.56;62.87;102933.72;5077594;28;45454;-74
2022/01/23 13:09:45;;;;;;;;;18.67;18.67;;;;;6.92;62.85;102977.09;5077457;28;45221;-71
2022/01/23 13:12:29;;;;;;;;;25.00;19.00;;;;;6.78;62.53;102939.81;5070121;28;45491;-75
2022/01/23 13:15:18;;;;;;;;;25.33;21.67;;;;;6.97;62.76;102974.25;5070625;28;45477;-76
2022/01/23 13:26:41;;;;;;;;;25.33;21.33;;;;;7.15;61.88;102967.31;5069144;28;45257;-73
2022/01/23 13:31:49;;;;;;;;;17.33;13.33;;;;;6.88;62.30;102920.00;5077392;28;45470;-75
2022/01/23 13:34:26;;;;;;;;;26.33;22.67;;;;;7.08;62.05;102956.16;5058320;28;45417;-75
2022/01/23 13:37:15;;;;;;;;;25.67;22.67;;;;;7.03;62.43;102952.00;5075834;28;45538;-75
2022/01/23 13:39:58;;;;;;;;;24.33;18.67;;;;;6.95;62.36;102950.53;5073419;28;47214;-76
2022/01/23 13:48:49;;;;;;;;;24.00;19.67;;;;;6.93;62.32;102938.31;5091340;27;45419;-74
2022/01/23 13:59:40;;;;;;;;;24.33;19.33;;;;;6.87;62.64;102905.06;5076130;27;45452;-76
2022/01/23 14:02:26;;;;;;;;;25.00;20.00;;;;;6.63;62.27;102832.13;5079838;28;46078;-77
2022/01/23 14:04:54;;;;;;;;;25.67;23.67;;;;;7.02;62.75;102919.41;5070083;28;45481;-75
2022/01/23 14:07:22;;;;;;;;;27.00;21.67;;;;;7.04;62.44;102906.09;5085435;27;45500;-74
2022/01/23 14:09:47;;;;;;;;;26.00;22.00;;;;;7.07;63.03;102905.97;5076512;28;45427;-76
2022/01/23 14:12:16;;;;;;;;;30.33;27.00;;;;;7.12;62.63;102903.97;5078163;28;45499;-74
2022/01/23 14:14:54;;;;;;;;;23.33;20.67;;;;;7.04;62.00;102895.53;5073296;28;45549;-76
2022/01/23 14:17:22;;;;;;;;;27.67;24.00;;;;;6.89;62.63;102867.97;5074467;28;45471;-77
2022/01/23 14:20:05;;;;;;;;;31.00;22.33;;;;;7.00;62.12;102874.47;5062217;28;45469;-74
2022/01/23 14:22:37;;;;;;;;;20.00;20.00;;;;;6.97;62.14;102864.03;5061601;28;48198;-76
2022/01/23 14:25:18;;;;;;;;;29.33;25.00;;;;;7.32;61.72;102896.00;5062458;28;45845;-75
2022/01/23 14:27:48;;;;;;;;;25.00;19.33;;;;;7.23;61.23;102878.75;5080399;28;45584;-75
2022/01/23 14:30:21;;;;;;;;;29.67;23.00;;;;;7.07;61.61;102853.94;5072796;28;45315;-76
2022/01/23 14:32:52;;;;;;;;;27.33;20.33;;;;;6.94;61.27;102836.88;5071671;28;45730;-76
2022/01/23 14:35:26;;;;;;;;;28.00;21.33;;;;;7.19;62.04;102878.94;5072707;28;45528;-76
2022/01/23 14:37:54;;;;;;;;;26.33;23.67;;;;;7.04;61.50;102843.50;5054740;28;45459;-75
2022/01/23 14:40:24;;;;;;;;;24.67;20.33;;;;;7.16;61.34;102868.50;5080473;28;45504;-76
2022/01/23 14:43:16;;;;;;;;;27.67;23.67;;;;;7.31;61.13;102883.69;5075529;27;48162;-75
2022/01/23 14:45:44;;;;;;;;;27.67;22.33;;;;;7.38;61.06;102887.75;5044440;28;46151;-73
2022/01/23 14:48:11;;;;;;;;;25.67;20.67;;;;;7.31;60.56;102862.53;5061949;28;45340;-73
2022/01/23 14:50:40;;;;;;;;;26.67;21.33;;;;;6.97;60.63;102790.00;5053942;28;45488;-75
2022/01/23 14:53:09;;;;;;;;;23.00;20.00;;;;;7.39;60.02;102857.72;5071714;27;46292;-74
2022/01/23 14:55:35;;;;;;;;;25.33;22.33;;;;;7.46;59.84;102874.19;5063428;27;45359;-73